Terminal Aerodrome Forecast
Issued by NWS Greer, SC

Home | Current Version | Previous Version | Text Only | Print | Product List | Glossary On
Versions: 1 2 3 4 5 6 7 8 9 10 11 12 13 14 15 16 17 18 19 20 21 22 23 24 25 26 27 28 29 30 31 32 33 34 35
000
FTUS42 KGSP 170540
TAFAVL
TAF
KAVL 170540Z 1706/1806 16003KT 3SM BR VCSH SCT002 OVC013
      TEMPO 1706/1708 2SM BR BKN002 OVC013
     FM170800 16003KT 2SM BR BKN003 OVC008
     FM171400 17005KT 3SM BR OVC015
     FM171600 18007KT P6SM OVC025 PROB30 1717/1723 3SM -SHRA OVC015
     FM180100 19007KT 4SM BR OVC020=

USA.gov is the U.S. government's official web portal to all federal, state and local government web resources and services.